createdAt,value
2023-09-17T00:04:35.553Z,90.69
2023-09-17T00:09:39.042Z,90.57
2023-09-17T00:14:42.638Z,90.62
2023-09-17T00:19:45.786Z,90.34
2023-09-17T00:24:49.150Z,90.37
2023-09-17T00:29:52.367Z,91.15
2023-09-17T00:34:55.671Z,91.86
2023-09-17T00:39:59.085Z,92.31
2023-09-17T00:45:04.034Z,92.56
2023-09-17T00:50:10.166Z,92.75
2023-09-17T00:55:13.452Z,92.99
2023-09-17T01:00:22.407Z,93.71
2023-09-17T01:05:38.358Z,95.20
2023-09-17T01:10:42.302Z,95.48
2023-09-17T01:15:45.832Z,96.59
2023-09-17T01:21:14.729Z,98.37
2023-09-17T01:26:26.467Z,97.48
2023-09-17T01:31:30.610Z,97.35
2023-09-17T01:36:37.356Z,97.82
2023-09-17T01:41:42.143Z,97.86
2023-09-17T01:46:47.148Z,98.48
2023-09-17T01:51:51.184Z,99.24
2023-09-17T01:56:54.395Z,99.27
2023-09-17T02:01:58.125Z,99.39
2023-09-17T02:07:01.424Z,99.55
2023-09-17T02:12:05.246Z,99.99
2023-09-17T02:17:12.540Z,100.00
2023-09-17T02:22:17.001Z,100.00
2023-09-17T02:27:20.800Z,100.00
2023-09-17T02:32:24.119Z,100.00
2023-09-17T02:37:28.048Z,99.75
2023-09-17T02:42:31.763Z,99.33
2023-09-17T02:47:35.317Z,99.77
2023-09-17T02:52:39.767Z,99.99
2023-09-17T02:57:43.122Z,100.00
2023-09-17T03:02:56.186Z,100.00
2023-09-17T03:08:00.346Z,100.00
2023-09-17T03:13:03.601Z,100.00
2023-09-17T03:18:06.874Z,100.00
2023-09-17T03:23:10.120Z,100.00
2023-09-17T03:28:13.426Z,100.00
2023-09-17T03:33:16.703Z,100.00
2023-09-17T03:38:20.459Z,100.00
2023-09-17T03:43:24.508Z,100.00
2023-09-17T03:48:27.897Z,100.00
2023-09-17T03:53:31.391Z,100.00
2023-09-17T03:58:34.960Z,100.00
2023-09-17T04:03:39.210Z,100.00
2023-09-17T04:08:42.368Z,100.00
2023-09-17T04:13:45.775Z,100.00
2023-09-17T04:18:48.785Z,100.00
2023-09-17T04:23:52.291Z,100.00
2023-09-17T04:28:55.874Z,100.00
2023-09-17T04:33:59.228Z,100.00
2023-09-17T04:39:02.233Z,100.00
2023-09-17T04:44:08.928Z,100.00
2023-09-17T04:49:12.646Z,100.00
2023-09-17T04:54:15.852Z,100.00
2023-09-17T04:59:19.010Z,100.00
2023-09-17T05:04:22.290Z,100.00
2023-09-17T05:09:25.590Z,100.00
2023-09-17T05:14:30.235Z,100.00
2023-09-17T05:19:33.572Z,100.00
2023-09-17T05:24:36.852Z,100.00
2023-09-17T05:29:41.221Z,98.31
2023-09-17T05:34:45.767Z,90.30
2023-09-17T05:39:49.028Z,83.26
2023-09-17T05:44:52.437Z,74.70
2023-09-17T05:49:57.279Z,72.31
2023-09-17T05:55:02.442Z,67.67
2023-09-17T06:00:08.945Z,63.34
2023-09-17T06:05:12.352Z,58.36
2023-09-17T06:10:16.211Z,57.48
2023-09-17T06:15:19.576Z,54.96
2023-09-17T06:20:23.194Z,52.73
2023-09-17T06:25:26.545Z,52.21
2023-09-17T06:30:29.909Z,48.68
2023-09-17T06:35:33.328Z,47.20
2023-09-17T06:40:36.604Z,46.45
2023-09-17T06:45:40.458Z,42.39
2023-09-17T06:50:43.978Z,42.43
2023-09-17T06:55:47.407Z,41.01
2023-09-17T07:00:50.713Z,41.79
2023-09-17T07:05:54.309Z,38.92
2023-09-17T07:10:58.019Z,36.93
2023-09-17T07:16:02.373Z,36.19
2023-09-17T07:21:06.501Z,33.11
2023-09-17T07:26:10.554Z,34.29
2023-09-17T07:31:16.562Z,33.53
2023-09-17T07:36:20.045Z,32.17
2023-09-17T07:41:24.570Z,31.54
2023-09-17T07:46:28.579Z,30.71
2023-09-17T07:51:32.196Z,29.77
2023-09-17T07:56:36.143Z,28.50
2023-09-17T08:01:39.678Z,28.63
2023-09-17T08:06:43.510Z,27.97
2023-09-17T08:11:47.329Z,28.06
2023-09-17T08:16:51.559Z,27.60
2023-09-17T08:21:55.027Z,28.51
2023-09-17T08:26:58.653Z,27.25
2023-09-17T08:32:03.070Z,26.55
2023-09-17T08:37:08.097Z,26.23
2023-09-17T08:42:12.159Z,25.54
2023-09-17T08:47:16.095Z,25.71
2023-09-17T08:52:20.725Z,24.97
2023-09-17T08:57:25.509Z,23.60
2023-09-17T09:02:33.880Z,24.23
2023-09-17T09:07:38.436Z,24.47
2023-09-17T09:12:43.606Z,24.30
2023-09-17T09:17:47.037Z,25.23
2023-09-17T09:22:50.357Z,24.61
2023-09-17T09:27:53.735Z,24.80
2023-09-17T09:32:58.088Z,24.72
2023-09-17T09:38:03.317Z,24.67
2023-09-17T09:43:06.634Z,25.33
2023-09-17T09:48:15.310Z,24.22
2023-09-17T09:53:18.355Z,24.80
2023-09-17T09:58:22.200Z,25.35
2023-09-17T10:03:25.902Z,24.23
2023-09-17T10:08:29.234Z,24.97
2023-09-17T10:13:36.199Z,26.63
2023-09-17T10:18:43.701Z,29.09
2023-09-17T10:23:47.269Z,33.10
2023-09-17T10:28:52.770Z,37.69
2023-09-17T10:34:00.329Z,40.52
2023-09-17T10:39:04.467Z,42.36
2023-09-17T10:44:09.336Z,44.45
2023-09-17T10:49:13.744Z,46.47
2023-09-17T10:54:17.262Z,48.12
2023-09-17T10:59:21.828Z,48.19
2023-09-17T11:04:27.208Z,48.64
2023-09-17T11:09:30.569Z,50.18
2023-09-17T11:14:33.832Z,51.09
2023-09-17T11:19:37.123Z,51.38
2023-09-17T11:24:41.737Z,51.27
2023-09-17T11:29:46.977Z,51.56
2023-09-17T11:34:50.369Z,50.49
2023-09-17T11:39:54.325Z,51.02
2023-09-17T11:44:58.315Z,50.11
2023-09-17T11:50:01.994Z,50.27
2023-09-17T11:55:09.585Z,50.79
2023-09-17T12:00:28.068Z,51.05
2023-09-17T12:05:31.455Z,50.08
2023-09-17T12:10:53.684Z,50.35
2023-09-17T12:15:58.256Z,50.12
2023-09-17T12:21:08.692Z,51.36
2023-09-17T12:26:12.248Z,51.75
2023-09-17T12:31:15.891Z,51.50
2023-09-17T12:36:19.071Z,51.21
2023-09-17T12:41:31.958Z,51.42
2023-09-17T12:46:43.523Z,51.74
2023-09-17T12:51:46.828Z,51.46
2023-09-17T12:56:52.298Z,51.17
2023-09-17T13:01:57.423Z,51.21
2023-09-17T13:07:01.773Z,51.19
2023-09-17T13:12:06.142Z,50.50
2023-09-17T13:17:09.676Z,49.49
2023-09-17T13:22:15.083Z,49.78
2023-09-17T13:27:19.463Z,50.23
2023-09-17T13:32:23.354Z,50.33
2023-09-17T13:37:27.074Z,50.86
2023-09-17T13:42:31.609Z,50.04
2023-09-17T13:47:34.939Z,50.28
2023-09-17T13:52:38.339Z,50.13
2023-09-17T13:57:42.145Z,50.53
2023-09-17T14:02:45.984Z,50.39
2023-09-17T14:07:49.301Z,50.49
2023-09-17T14:12:53.003Z,50.76
2023-09-17T14:17:56.221Z,50.82
2023-09-17T14:22:59.470Z,51.24
2023-09-17T14:28:02.749Z,50.99
2023-09-17T14:33:06.603Z,51.05
2023-09-17T14:38:09.898Z,51.60
2023-09-17T14:43:13.693Z,51.89
2023-09-17T14:48:17.234Z,52.95
2023-09-17T14:53:20.662Z,53.94
2023-09-17T14:58:24.130Z,54.51
2023-09-17T15:03:30.410Z,55.55
2023-09-17T15:08:34.434Z,56.49
2023-09-17T15:13:37.663Z,56.62
2023-09-17T15:18:41.467Z,56.84
2023-09-17T15:23:44.881Z,57.59
2023-09-17T15:28:50.632Z,58.37
2023-09-17T15:33:55.051Z,59.41
2023-09-17T15:38:58.603Z,60.73
2023-09-17T15:44:02.165Z,61.74
2023-09-17T15:49:06.616Z,62.87
2023-09-17T15:54:10.597Z,64.01
2023-09-17T15:59:14.566Z,64.63
2023-09-17T16:04:18.220Z,65.42
2023-09-17T16:09:22.044Z,65.85
2023-09-17T16:14:25.809Z,66.67
2023-09-17T16:19:29.897Z,67.68
2023-09-17T16:24:33.313Z,69.03
2023-09-17T16:29:37.444Z,69.76
2023-09-17T16:34:40.973Z,70.33
2023-09-17T16:39:44.264Z,71.21
2023-09-17T16:44:47.787Z,72.06
2023-09-17T16:49:51.068Z,72.85
2023-09-17T16:54:54.819Z,73.90
2023-09-17T16:59:58.017Z,74.76
2023-09-17T17:05:01.963Z,75.72
2023-09-17T17:10:07.360Z,76.82
2023-09-17T17:15:11.139Z,77.92
2023-09-17T17:20:14.706Z,79.12
2023-09-17T17:25:19.198Z,80.97
2023-09-17T17:30:23.372Z,82.77
2023-09-17T17:35:27.366Z,83.68
2023-09-17T17:40:31.263Z,83.77
2023-09-17T17:45:39.007Z,83.85
2023-09-17T17:50:43.630Z,84.33
2023-09-17T17:55:50.131Z,85.02
2023-09-17T18:00:54.682Z,85.35
2023-09-17T18:06:00.251Z,85.80
2023-09-17T18:11:06.531Z,86.56
2023-09-17T18:16:10.770Z,86.72
2023-09-17T18:21:15.067Z,86.93
2023-09-17T18:26:22.007Z,87.61
2023-09-17T18:31:26.537Z,88.18
2023-09-17T18:36:30.602Z,88.74
2023-09-17T18:41:34.413Z,89.63
2023-09-17T18:46:38.087Z,90.30
2023-09-17T18:51:41.580Z,90.35
2023-09-17T18:56:45.557Z,90.09
2023-09-17T19:01:49.375Z,89.62
2023-09-17T19:06:53.820Z,88.98
2023-09-17T19:11:58.403Z,88.65
2023-09-17T19:17:06.396Z,88.88
2023-09-17T19:22:10.988Z,88.95
2023-09-17T19:27:16.257Z,88.84
2023-09-17T19:32:21.474Z,89.13
2023-09-17T19:37:26.060Z,89.35
2023-09-17T19:42:30.411Z,89.71
2023-09-17T19:47:37.478Z,90.20
2023-09-17T19:52:41.109Z,90.49
2023-09-17T19:57:44.413Z,90.43
2023-09-17T20:02:47.979Z,90.30
2023-09-17T20:07:51.581Z,90.06
2023-09-17T20:12:55.059Z,89.98
2023-09-17T20:17:59.525Z,89.88
2023-09-17T20:23:03.132Z,89.89
2023-09-17T20:28:10.728Z,89.99
2023-09-17T20:33:13.836Z,90.03
2023-09-17T20:38:17.205Z,89.93
2023-09-17T20:43:20.927Z,90.14
2023-09-17T20:48:26.034Z,90.61
2023-09-17T20:53:30.000Z,91.07
2023-09-17T20:58:34.794Z,91.25
2023-09-17T21:03:39.034Z,91.61
2023-09-17T21:08:43.156Z,91.77
2023-09-17T21:13:46.680Z,92.21
2023-09-17T21:18:51.021Z,92.14
2023-09-17T21:23:56.988Z,92.33
2023-09-17T21:29:00.962Z,92.25
2023-09-17T21:34:04.927Z,92.71
2023-09-17T21:39:08.742Z,92.84
2023-09-17T21:44:13.042Z,92.90
2023-09-17T21:49:17.827Z,93.00
2023-09-17T21:54:21.132Z,93.31
2023-09-17T21:59:24.562Z,94.03
2023-09-17T22:04:30.030Z,94.36
2023-09-17T22:09:34.240Z,94.61
2023-09-17T22:14:38.587Z,94.44
2023-09-17T22:19:42.629Z,94.46
2023-09-17T22:24:45.819Z,95.16
2023-09-17T22:29:50.352Z,95.76
2023-09-17T22:34:56.477Z,96.78
2023-09-17T22:40:02.195Z,97.82
2023-09-17T22:45:06.478Z,98.42
2023-09-17T22:50:10.295Z,98.39
2023-09-17T22:55:13.658Z,98.77
2023-09-17T23:00:17.608Z,99.77
2023-09-17T23:05:20.957Z,100.00
2023-09-17T23:10:25.280Z,100.00
2023-09-17T23:15:29.260Z,100.00
2023-09-17T23:20:33.312Z,100.00
2023-09-17T23:25:36.597Z,100.00
2023-09-17T23:30:43.834Z,100.00
2023-09-17T23:35:49.044Z,100.00
2023-09-17T23:40:52.311Z,100.00
2023-09-17T23:45:55.796Z,100.00
2023-09-17T23:50:59.189Z,100.00
2023-09-17T23:56:03.472Z,100.00
